Gaylord, MI

8:54 AM EDT on August 27, 2014 (GMT -0400)
GAYLORD ALPINE CENTER | Change Station
CLOSE
Current Station
Personal Weather Station
Location: Gaylord, MI
Elevation: 1385 ft
Nearby Weather Stations

Elev 1385 ft 45.04 °N, 84.67 °W | Updated 7 minutes ago

Clear
Clear
54.5 °F
Feels Like 54.5 °F
N
2.2
Wind Variable Wind from SSW

Today
High -- | Low -- °F
--% Chance of Precip.
Yesterday
High -- | Low -- °F
Precip. -- in
6:54 AM 8:24 PM
Waxing Crescent, 3% visible
Pressure 30.17 in
Visibility 10.0 miles
Clouds Clear
Dew Point 51 °F
Humidity 88%
Rainfall 0.00 in
Snow Depth Not available.
UV 0 out of 12
Pollen 9.90 out of 12
Ozone Good
PM2.5 Good
Flu Activity Not available.
METAR KGLR 271153Z AUTO 00000KT 10SM CLR 11/10 A3016 RMK AO2 SLP215 T01110100 10133 20111 53004

More Conditions Fewer Conditions

Pressure 30.17 in
Visibility 10.0 miles
Clouds Clear
Dew Point 51 °F
Humidity 88%
Rainfall 0.00 in
Snow Depth Not available.
UV 0 out of 12
Pollen 9.90 out of 12
Ozone Good
PM2.5 Good
Flu Activity Not available.
METAR KGLR 271153Z AUTO 00000KT 10SM CLR 11/10 A3016 RMK AO2 SLP215 T01110100 10133 20111 53004

More Conditions Fewer Conditions

Nowcast | as of 8:00 am EDT on August 27, 2014

At 9 am...cloudy...sprinkles. Temperature 56. Light winds. At 11 am...mostly cloudy. Temperature 59. Northwest winds 8 mph. At 1 PM...partly cloudy. Temperature 64. Northwest winds 9 mph. At 3 PM...mostly clear. Temperature 67. Northwest winds 9 mph.

×

10-Day Weather Forecast

Almanac

Astronomy

Aug. 27, 2014 Rise Set
Actual Time 6:54 AM EDT 8:24 PM EDT
Civil Twilight 6:23 AM EDT 8:55 PM EDT
Nautical Twilight 5:46 AM EDT 9:32 PM EDT
Astronomical Twilight 5:06 AM EDT 10:12 PM EDT
Moon 8:57 AM EDT 9:08 PM EDT
Length of Visible Light 14h 31m
Length of Day
13h 30m
Tomorrow will be 2m 59s shorter.
Waxing Crescent, 3% of the Moon is Illuminated
Today
Waxing Crescent
Sep 2
First Quarter
Sep 8
Full
Sep 15
Last Quarter
Sep 24
New

Today's Extremes

State Highs State Lows

Community

WunderPhotos

Upload Photos

1,747,676 photos uploaded!

Nearby

Air Quality

  Air Quality AQ Index Pollutant
Yesterday Good
PM2.5
Yesterday Good
OZONE
Current Good
PM2.5
Current Good
OZONE
Wednesday Good
OZONE
Wednesday Good
PM2.5
Thursday Good
OZONE
Thursday Good
PM2.5
Friday Good
OZONE
Friday Good
PM2.5

Snow Depth

Station Depth Elevation
No new snow has been reported.

Earthquake Activity

City Distance Mag. Time & Date
No recent earthquake activity has been reported nearby.
Minimum magnitude displayed is 2.5.

Coastal Water Temperatures

Place Temperature
Mackinaw City, MI 62.1 °F
Port Inland, MI 66.0 °F

Nearby Weather Stations